sensor_id;sensor_type;location;lat;lon;timestamp;temperature;humidity
4509;DHT22;2267;48.816;9.230;2023-02-22T00:01:33;10.30;92.90
4509;DHT22;2267;48.816;9.230;2023-02-22T00:04:04;10.30;92.70
4509;DHT22;2267;48.816;9.230;2023-02-22T00:06:32;10.30;92.80
4509;DHT22;2267;48.816;9.230;2023-02-22T00:08:59;10.30;92.80
4509;DHT22;2267;48.816;9.230;2023-02-22T00:11:28;10.30;93.00
4509;DHT22;2267;48.816;9.230;2023-02-22T00:13:57;10.30;93.10
4509;DHT22;2267;48.816;9.230;2023-02-22T00:16:24;10.20;93.10
4509;DHT22;2267;48.816;9.230;2023-02-22T00:18:52;10.20;93.30
4509;DHT22;2267;48.816;9.230;2023-02-22T00:21:20;10.20;93.30
4509;DHT22;2267;48.816;9.230;2023-02-22T00:23:47;10.20;93.00
4509;DHT22;2267;48.816;9.230;2023-02-22T00:26:20;10.10;92.90
4509;DHT22;2267;48.816;9.230;2023-02-22T00:28:49;10.10;92.90
4509;DHT22;2267;48.816;9.230;2023-02-22T00:31:17;10.10;92.90
4509;DHT22;2267;48.816;9.230;2023-02-22T00:33:45;10.10;93.00
4509;DHT22;2267;48.816;9.230;2023-02-22T00:36:12;10.00;93.20
4509;DHT22;2267;48.816;9.230;2023-02-22T00:38:40;9.90;93.60
4509;DHT22;2267;48.816;9.230;2023-02-22T00:41:08;9.90;94.00
4509;DHT22;2267;48.816;9.230;2023-02-22T00:43:35;9.90;94.40
4509;DHT22;2267;48.816;9.230;2023-02-22T00:46:02;9.90;94.10
4509;DHT22;2267;48.816;9.230;2023-02-22T00:48:29;9.80;94.00
4509;DHT22;2267;48.816;9.230;2023-02-22T00:50:55;9.80;94.00
4509;DHT22;2267;48.816;9.230;2023-02-22T00:53:23;9.80;94.10
4509;DHT22;2267;48.816;9.230;2023-02-22T00:55:51;9.70;94.20
4509;DHT22;2267;48.816;9.230;2023-02-22T00:58:18;9.70;94.30
4509;DHT22;2267;48.816;9.230;2023-02-22T01:00:45;9.70;94.10
4509;DHT22;2267;48.816;9.230;2023-02-22T01:03:15;9.70;94.20
4509;DHT22;2267;48.816;9.230;2023-02-22T01:05:43;9.60;94.30
4509;DHT22;2267;48.816;9.230;2023-02-22T01:08:11;9.60;94.50
4509;DHT22;2267;48.816;9.230;2023-02-22T01:10:39;9.50;94.60
4509;DHT22;2267;48.816;9.230;2023-02-22T01:13:07;9.50;94.80
4509;DHT22;2267;48.816;9.230;2023-02-22T01:15:36;9.40;94.90
4509;DHT22;2267;48.816;9.230;2023-02-22T01:18:04;9.40;95.10
4509;DHT22;2267;48.816;9.230;2023-02-22T01:20:31;9.40;95.20
4509;DHT22;2267;48.816;9.230;2023-02-22T01:23:00;9.40;94.90
4509;DHT22;2267;48.816;9.230;2023-02-22T01:25:29;9.40;94.80
4509;DHT22;2267;48.816;9.230;2023-02-22T01:27:58;9.40;94.70
4509;DHT22;2267;48.816;9.230;2023-02-22T01:30:27;9.40;94.80
4509;DHT22;2267;48.816;9.230;2023-02-22T01:32:55;9.40;94.90
4509;DHT22;2267;48.816;9.230;2023-02-22T01:35:25;9.30;94.90
4509;DHT22;2267;48.816;9.230;2023-02-22T01:37:53;9.30;95.00
4509;DHT22;2267;48.816;9.230;2023-02-22T01:40:47;9.30;94.90
4509;DHT22;2267;48.816;9.230;2023-02-22T01:45:49;9.30;94.80
4509;DHT22;2267;48.816;9.230;2023-02-22T01:56:09;9.20;95.00
4509;DHT22;2267;48.816;9.230;2023-02-22T01:58:38;9.20;95.20
4509;DHT22;2267;48.816;9.230;2023-02-22T02:01:06;9.20;95.20
4509;DHT22;2267;48.816;9.230;2023-02-22T02:03:35;9.20;95.10
4509;DHT22;2267;48.816;9.230;2023-02-22T02:06:08;9.20;95.10
4509;DHT22;2267;48.816;9.230;2023-02-22T02:11:18;9.20;95.30
4509;DHT22;2267;48.816;9.230;2023-02-22T02:13:46;9.10;95.30
4509;DHT22;2267;48.816;9.230;2023-02-22T02:16:15;9.20;95.20
4509;DHT22;2267;48.816;9.230;2023-02-22T02:18:42;9.20;95.50
4509;DHT22;2267;48.816;9.230;2023-02-22T02:24:45;9.10;95.50
4509;DHT22;2267;48.816;9.230;2023-02-22T02:27:21;9.10;95.60
4509;DHT22;2267;48.816;9.230;2023-02-22T02:30:13;9.00;95.50
4509;DHT22;2267;48.816;9.230;2023-02-22T02:35:40;8.90;95.50
4509;DHT22;2267;48.816;9.230;2023-02-22T02:38:34;8.90;95.70
4509;DHT22;2267;48.816;9.230;2023-02-22T02:41:13;8.90;95.70
4509;DHT22;2267;48.816;9.230;2023-02-22T02:44:25;8.90;95.60
4509;DHT22;2267;48.816;9.230;2023-02-22T02:46:33;8.80;95.90
4509;DHT22;2267;48.816;9.230;2023-02-22T02:49:07;8.80;96.10
4509;DHT22;2267;48.816;9.230;2023-02-22T02:51:40;8.80;95.80
4509;DHT22;2267;48.816;9.230;2023-02-22T02:54:10;8.80;95.90
4509;DHT22;2267;48.816;9.230;2023-02-22T02:56:40;8.80;95.80
4509;DHT22;2267;48.816;9.230;2023-02-22T02:59:42;8.80;95.80
4509;DHT22;2267;48.816;9.230;2023-02-22T03:12:59;8.80;96.00
4509;DHT22;2267;48.816;9.230;2023-02-22T03:18:16;8.80;96.30
4509;DHT22;2267;48.816;9.230;2023-02-22T03:20:49;8.80;96.20
4509;DHT22;2267;48.816;9.230;2023-02-22T03:23:30;8.80;96.40
4509;DHT22;2267;48.816;9.230;2023-02-22T03:26:03;8.80;96.50
4509;DHT22;2267;48.816;9.230;2023-02-22T03:28:34;8.80;96.50
4509;DHT22;2267;48.816;9.230;2023-02-22T03:31:17;8.70;96.40
4509;DHT22;2267;48.816;9.230;2023-02-22T03:34:12;8.70;96.50
4509;DHT22;2267;48.816;9.230;2023-02-22T03:36:47;8.70;96.40
4509;DHT22;2267;48.816;9.230;2023-02-22T03:39:17;8.70;96.50
4509;DHT22;2267;48.816;9.230;2023-02-22T03:41:48;8.70;96.40
4509;DHT22;2267;48.816;9.230;2023-02-22T03:44:21;8.70;96.30
4509;DHT22;2267;48.816;9.230;2023-02-22T03:46:52;8.70;96.20
4509;DHT22;2267;48.816;9.230;2023-02-22T03:49:25;8.70;96.20
4509;DHT22;2267;48.816;9.230;2023-02-22T03:51:55;8.70;96.30
4509;DHT22;2267;48.816;9.230;2023-02-22T03:54:22;8.70;96.30
4509;DHT22;2267;48.816;9.230;2023-02-22T03:56:55;8.70;96.30
4509;DHT22;2267;48.816;9.230;2023-02-22T03:59:23;8.70;96.70
4509;DHT22;2267;48.816;9.230;2023-02-22T04:01:54;8.70;96.30
4509;DHT22;2267;48.816;9.230;2023-02-22T04:04:23;8.70;96.30
4509;DHT22;2267;48.816;9.230;2023-02-22T04:06:51;8.70;96.20
4509;DHT22;2267;48.816;9.230;2023-02-22T04:09:18;8.70;96.30
4509;DHT22;2267;48.816;9.230;2023-02-22T04:11:45;8.70;96.30
4509;DHT22;2267;48.816;9.230;2023-02-22T04:14:12;8.70;96.20
4509;DHT22;2267;48.816;9.230;2023-02-22T04:16:39;8.60;96.30
4509;DHT22;2267;48.816;9.230;2023-02-22T04:19:06;8.60;96.20
4509;DHT22;2267;48.816;9.230;2023-02-22T04:21:33;8.60;96.10
4509;DHT22;2267;48.816;9.230;2023-02-22T04:24:00;8.60;96.20
4509;DHT22;2267;48.816;9.230;2023-02-22T04:26:27;8.60;96.20
4509;DHT22;2267;48.816;9.230;2023-02-22T04:28:54;8.60;96.30
4509;DHT22;2267;48.816;9.230;2023-02-22T04:31:20;8.60;96.10
4509;DHT22;2267;48.816;9.230;2023-02-22T04:33:47;8.60;96.20
4509;DHT22;2267;48.816;9.230;2023-02-22T04:36:14;8.60;96.30
4509;DHT22;2267;48.816;9.230;2023-02-22T04:38:42;8.60;96.30
4509;DHT22;2267;48.816;9.230;2023-02-22T04:41:09;8.60;96.40
4509;DHT22;2267;48.816;9.230;2023-02-22T04:43:36;8.60;96.40
4509;DHT22;2267;48.816;9.230;2023-02-22T04:46:03;8.50;96.20
4509;DHT22;2267;48.816;9.230;2023-02-22T04:48:31;8.50;96.10
4509;DHT22;2267;48.816;9.230;2023-02-22T04:50:57;8.50;96.20
4509;DHT22;2267;48.816;9.230;2023-02-22T04:53:24;8.50;96.10
4509;DHT22;2267;48.816;9.230;2023-02-22T04:55:51;8.50;96.20
4509;DHT22;2267;48.816;9.230;2023-02-22T04:58:18;8.50;96.20
4509;DHT22;2267;48.816;9.230;2023-02-22T05:00:45;8.40;96.20
4509;DHT22;2267;48.816;9.230;2023-02-22T05:03:11;8.40;96.20
4509;DHT22;2267;48.816;9.230;2023-02-22T05:05:38;8.40;96.20
4509;DHT22;2267;48.816;9.230;2023-02-22T05:08:05;8.40;96.20
4509;DHT22;2267;48.816;9.230;2023-02-22T05:10:32;8.40;96.20
4509;DHT22;2267;48.816;9.230;2023-02-22T05:12:59;8.40;96.30
4509;DHT22;2267;48.816;9.230;2023-02-22T05:15:27;8.40;96.30
4509;DHT22;2267;48.816;9.230;2023-02-22T05:17:54;8.40;96.40
4509;DHT22;2267;48.816;9.230;2023-02-22T05:20:27;8.40;96.50
4509;DHT22;2267;48.816;9.230;2023-02-22T05:22:56;8.40;96.60
4509;DHT22;2267;48.816;9.230;2023-02-22T05:25:23;8.40;96.60
4509;DHT22;2267;48.816;9.230;2023-02-22T05:27:52;8.40;96.70
4509;DHT22;2267;48.816;9.230;2023-02-22T05:30:21;8.30;96.70
4509;DHT22;2267;48.816;9.230;2023-02-22T05:32:50;8.30;96.80
4509;DHT22;2267;48.816;9.230;2023-02-22T05:35:19;8.30;96.90
4509;DHT22;2267;48.816;9.230;2023-02-22T05:37:46;8.30;96.90
4509;DHT22;2267;48.816;9.230;2023-02-22T05:40:13;8.30;96.90
4509;DHT22;2267;48.816;9.230;2023-02-22T05:42:40;8.30;96.80
4509;DHT22;2267;48.816;9.230;2023-02-22T05:45:07;8.30;97.00
4509;DHT22;2267;48.816;9.230;2023-02-22T05:47:34;8.20;97.00
4509;DHT22;2267;48.816;9.230;2023-02-22T05:50:01;8.20;97.10
4509;DHT22;2267;48.816;9.230;2023-02-22T05:52:28;8.20;97.10
4509;DHT22;2267;48.816;9.230;2023-02-22T05:54:54;8.20;97.10
4509;DHT22;2267;48.816;9.230;2023-02-22T05:57:21;8.20;97.00
4509;DHT22;2267;48.816;9.230;2023-02-22T05:59:48;8.20;97.10
4509;DHT22;2267;48.816;9.230;2023-02-22T06:02:15;8.20;97.10
4509;DHT22;2267;48.816;9.230;2023-02-22T06:04:45;8.20;97.10
4509;DHT22;2267;48.816;9.230;2023-02-22T06:07:13;8.20;97.30
4509;DHT22;2267;48.816;9.230;2023-02-22T06:09:40;8.20;97.20
4509;DHT22;2267;48.816;9.230;2023-02-22T06:12:07;8.00;97.20
4509;DHT22;2267;48.816;9.230;2023-02-22T06:14:35;8.20;97.40
4509;DHT22;2267;48.816;9.230;2023-02-22T06:17:02;8.10;97.40
4509;DHT22;2267;48.816;9.230;2023-02-22T06:19:30;8.10;97.50
4509;DHT22;2267;48.816;9.230;2023-02-22T06:21:57;8.10;97.50
4509;DHT22;2267;48.816;9.230;2023-02-22T06:24:25;8.10;97.40
4509;DHT22;2267;48.816;9.230;2023-02-22T06:27:00;8.10;97.30
4509;DHT22;2267;48.816;9.230;2023-02-22T06:29:28;8.10;97.40
4509;DHT22;2267;48.816;9.230;2023-02-22T06:31:55;8.10;97.40
4509;DHT22;2267;48.816;9.230;2023-02-22T06:34:22;8.20;97.50
4509;DHT22;2267;48.816;9.230;2023-02-22T06:36:48;8.20;97.60
4509;DHT22;2267;48.816;9.230;2023-02-22T06:39:16;8.20;97.50
4509;DHT22;2267;48.816;9.230;2023-02-22T06:41:45;8.20;97.40
4509;DHT22;2267;48.816;9.230;2023-02-22T06:44:13;8.20;97.40
4509;DHT22;2267;48.816;9.230;2023-02-22T06:46:48;8.20;97.50
4509;DHT22;2267;48.816;9.230;2023-02-22T06:49:17;8.20;97.40
4509;DHT22;2267;48.816;9.230;2023-02-22T06:51:44;8.20;97.40
4509;DHT22;2267;48.816;9.230;2023-02-22T06:54:12;8.20;97.40
4509;DHT22;2267;48.816;9.230;2023-02-22T06:56:38;8.20;97.40
4509;DHT22;2267;48.816;9.230;2023-02-22T06:59:05;8.20;97.40
4509;DHT22;2267;48.816;9.230;2023-02-22T07:01:32;8.20;97.40
4509;DHT22;2267;48.816;9.230;2023-02-22T07:03:59;8.20;97.30
4509;DHT22;2267;48.816;9.230;2023-02-22T07:06:26;8.20;97.40
4509;DHT22;2267;48.816;9.230;2023-02-22T07:08:52;8.20;97.20
4509;DHT22;2267;48.816;9.230;2023-02-22T07:11:20;8.20;97.30
4509;DHT22;2267;48.816;9.230;2023-02-22T07:13:46;8.20;97.30
4509;DHT22;2267;48.816;9.230;2023-02-22T07:16:13;8.30;97.30
4509;DHT22;2267;48.816;9.230;2023-02-22T07:18:40;8.30;97.40
4509;DHT22;2267;48.816;9.230;2023-02-22T07:21:07;8.30;97.30
4509;DHT22;2267;48.816;9.230;2023-02-22T07:23:33;8.30;97.40
4509;DHT22;2267;48.816;9.230;2023-02-22T07:26:01;8.30;97.40
4509;DHT22;2267;48.816;9.230;2023-02-22T07:28:28;8.40;97.40
4509;DHT22;2267;48.816;9.230;2023-02-22T07:30:55;8.30;97.30
4509;DHT22;2267;48.816;9.230;2023-02-22T07:33:22;8.40;97.40
4509;DHT22;2267;48.816;9.230;2023-02-22T07:35:49;8.40;97.30
4509;DHT22;2267;48.816;9.230;2023-02-22T07:38:18;8.40;97.20
4509;DHT22;2267;48.816;9.230;2023-02-22T07:40:46;8.50;97.20
4509;DHT22;2267;48.816;9.230;2023-02-22T07:45:39;8.50;97.60
4509;DHT22;2267;48.816;9.230;2023-02-22T07:48:07;8.60;97.20
4509;DHT22;2267;48.816;9.230;2023-02-22T07:50:34;8.60;97.10
4509;DHT22;2267;48.816;9.230;2023-02-22T07:53:03;8.60;97.00
4509;DHT22;2267;48.816;9.230;2023-02-22T07:55:31;8.60;97.10
4509;DHT22;2267;48.816;9.230;2023-02-22T07:58:01;8.70;97.10
4509;DHT22;2267;48.816;9.230;2023-02-22T08:00:30;8.70;97.10
4509;DHT22;2267;48.816;9.230;2023-02-22T08:02:59;8.80;97.20
4509;DHT22;2267;48.816;9.230;2023-02-22T08:05:27;8.80;97.20
4509;DHT22;2267;48.816;9.230;2023-02-22T08:07:54;8.90;97.30
4509;DHT22;2267;48.816;9.230;2023-02-22T08:10:23;8.90;97.20
4509;DHT22;2267;48.816;9.230;2023-02-22T08:12:52;9.00;97.30
4509;DHT22;2267;48.816;9.230;2023-02-22T08:15:26;9.00;97.20
4509;DHT22;2267;48.816;9.230;2023-02-22T08:17:54;9.10;97.00
4509;DHT22;2267;48.816;9.230;2023-02-22T08:20:21;9.10;97.00
4509;DHT22;2267;48.816;9.230;2023-02-22T08:22:49;9.20;97.00
4509;DHT22;2267;48.816;9.230;2023-02-22T08:25:17;9.20;97.00
4509;DHT22;2267;48.816;9.230;2023-02-22T08:27:45;9.30;96.90
4509;DHT22;2267;48.816;9.230;2023-02-22T08:30:19;9.40;96.90
4509;DHT22;2267;48.816;9.230;2023-02-22T08:32:46;9.40;96.80
4509;DHT22;2267;48.816;9.230;2023-02-22T08:35:15;9.50;96.70
4509;DHT22;2267;48.816;9.230;2023-02-22T08:37:47;9.60;96.60
4509;DHT22;2267;48.816;9.230;2023-02-22T08:40:16;9.70;96.70
4509;DHT22;2267;48.816;9.230;2023-02-22T08:42:44;9.80;96.50
4509;DHT22;2267;48.816;9.230;2023-02-22T08:45:11;9.80;96.20
4509;DHT22;2267;48.816;9.230;2023-02-22T08:47:40;9.90;96.20
4509;DHT22;2267;48.816;9.230;2023-02-22T08:50:07;10.00;95.80
4509;DHT22;2267;48.816;9.230;2023-02-22T08:52:34;10.30;95.80
4509;DHT22;2267;48.816;9.230;2023-02-22T08:55:01;10.50;95.50
4509;DHT22;2267;48.816;9.230;2023-02-22T08:57:28;10.70;95.20
4509;DHT22;2267;48.816;9.230;2023-02-22T08:59:55;10.90;94.90
4509;DHT22;2267;48.816;9.230;2023-02-22T09:02:21;11.00;94.80
4509;DHT22;2267;48.816;9.230;2023-02-22T09:04:48;11.20;94.60
4509;DHT22;2267;48.816;9.230;2023-02-22T09:07:16;11.30;94.40
4509;DHT22;2267;48.816;9.230;2023-02-22T09:09:43;11.40;94.30
4509;DHT22;2267;48.816;9.230;2023-02-22T09:12:11;11.60;94.20
4509;DHT22;2267;48.816;9.230;2023-02-22T09:14:37;11.70;94.20
4509;DHT22;2267;48.816;9.230;2023-02-22T09:17:04;11.80;94.00
4509;DHT22;2267;48.816;9.230;2023-02-22T09:19:31;11.80;93.80
4509;DHT22;2267;48.816;9.230;2023-02-22T09:21:58;11.80;93.80
4509;DHT22;2267;48.816;9.230;2023-02-22T09:24:26;11.80;93.90
4509;DHT22;2267;48.816;9.230;2023-02-22T09:26:53;11.80;94.00
4509;DHT22;2267;48.816;9.230;2023-02-22T09:29:22;11.90;94.10
4509;DHT22;2267;48.816;9.230;2023-02-22T09:31:50;11.90;94.10
4509;DHT22;2267;48.816;9.230;2023-02-22T09:34:18;12.00;94.20
4509;DHT22;2267;48.816;9.230;2023-02-22T09:36:46;12.10;94.50
4509;DHT22;2267;48.816;9.230;2023-02-22T09:39:15;12.20;94.10
4509;DHT22;2267;48.816;9.230;2023-02-22T09:42:01;12.10;94.00
4509;DHT22;2267;48.816;9.230;2023-02-22T09:44:50;12.20;94.20
4509;DHT22;2267;48.816;9.230;2023-02-22T09:47:22;12.20;94.20
4509;DHT22;2267;48.816;9.230;2023-02-22T09:50:22;12.20;94.30
4509;DHT22;2267;48.816;9.230;2023-02-22T09:55:47;12.50;94.50
4509;DHT22;2267;48.816;9.230;2023-02-22T09:58:32;12.60;94.30
4509;DHT22;2267;48.816;9.230;2023-02-22T10:01:25;12.70;94.20
4509;DHT22;2267;48.816;9.230;2023-02-22T10:04:14;12.90;94.20
4509;DHT22;2267;48.816;9.230;2023-02-22T10:09:40;13.30;93.70
4509;DHT22;2267;48.816;9.230;2023-02-22T10:20:57;14.30;92.50
4509;DHT22;2267;48.816;9.230;2023-02-22T10:23:31;14.40;92.30
4509;DHT22;2267;48.816;9.230;2023-02-22T10:26:15;14.50;92.00
4509;DHT22;2267;48.816;9.230;2023-02-22T10:29:19;14.50;91.80
4509;DHT22;2267;48.816;9.230;2023-02-22T10:31:55;14.70;91.50
4509;DHT22;2267;48.816;9.230;2023-02-22T10:34:26;14.90;91.20
4509;DHT22;2267;48.816;9.230;2023-02-22T10:37:07;14.90;91.20
4509;DHT22;2267;48.816;9.230;2023-02-22T10:39:43;15.00;91.10
4509;DHT22;2267;48.816;9.230;2023-02-22T10:42:11;15.00;90.90
4509;DHT22;2267;48.816;9.230;2023-02-22T10:44:38;15.10;91.00
4509;DHT22;2267;48.816;9.230;2023-02-22T10:47:10;15.30;91.30
4509;DHT22;2267;48.816;9.230;2023-02-22T10:49:41;15.30;90.80
4509;DHT22;2267;48.816;9.230;2023-02-22T10:52:16;15.30;90.50
4509;DHT22;2267;48.816;9.230;2023-02-22T10:54:47;15.30;90.50
4509;DHT22;2267;48.816;9.230;2023-02-22T10:57:20;15.40;90.60
4509;DHT22;2267;48.816;9.230;2023-02-22T10:59:48;15.40;90.60
4509;DHT22;2267;48.816;9.230;2023-02-22T11:02:32;15.30;90.50
4509;DHT22;2267;48.816;9.230;2023-02-22T11:05:00;15.40;90.60
4509;DHT22;2267;48.816;9.230;2023-02-22T11:07:33;15.40;90.50
4509;DHT22;2267;48.816;9.230;2023-02-22T11:10:06;15.40;90.50
4509;DHT22;2267;48.816;9.230;2023-02-22T11:12:38;15.40;90.50
4509;DHT22;2267;48.816;9.230;2023-02-22T11:15:25;15.50;90.60
4509;DHT22;2267;48.816;9.230;2023-02-22T11:17:54;15.50;90.60
4509;DHT22;2267;48.816;9.230;2023-02-22T11:20:29;15.60;90.60
4509;DHT22;2267;48.816;9.230;2023-02-22T11:23:01;15.70;90.80
4509;DHT22;2267;48.816;9.230;2023-02-22T11:25:40;15.70;90.40
4509;DHT22;2267;48.816;9.230;2023-02-22T11:28:20;15.70;90.30
4509;DHT22;2267;48.816;9.230;2023-02-22T11:30:58;15.70;90.40
4509;DHT22;2267;48.816;9.230;2023-02-22T11:33:34;15.70;90.50
4509;DHT22;2267;48.816;9.230;2023-02-22T11:36:04;15.80;90.60
4509;DHT22;2267;48.816;9.230;2023-02-22T11:38:38;15.90;90.70
4509;DHT22;2267;48.816;9.230;2023-02-22T11:41:20;15.90;90.50
4509;DHT22;2267;48.816;9.230;2023-02-22T11:43:51;16.00;90.40
4509;DHT22;2267;48.816;9.230;2023-02-22T11:46:25;16.00;90.30
4509;DHT22;2267;48.816;9.230;2023-02-22T11:51:29;16.10;90.30
4509;DHT22;2267;48.816;9.230;2023-02-22T12:02:45;16.20;90.20
4509;DHT22;2267;48.816;9.230;2023-02-22T12:12:16;16.50;90.30
4509;DHT22;2267;48.816;9.230;2023-02-22T12:14:25;16.60;90.20
4509;DHT22;2267;48.816;9.230;2023-02-22T12:17:08;16.70;90.20
4509;DHT22;2267;48.816;9.230;2023-02-22T12:19:43;16.80;90.10
4509;DHT22;2267;48.816;9.230;2023-02-22T12:25:04;17.00;89.20
4509;DHT22;2267;48.816;9.230;2023-02-22T12:27:40;17.00;89.10
4509;DHT22;2267;48.816;9.230;2023-02-22T12:30:21;17.20;88.90
4509;DHT22;2267;48.816;9.230;2023-02-22T12:32:50;17.40;88.70
4509;DHT22;2267;48.816;9.230;2023-02-22T12:35:27;17.50;88.30
4509;DHT22;2267;48.816;9.230;2023-02-22T12:43:51;17.30;87.00
4509;DHT22;2267;48.816;9.230;2023-02-22T12:51:30;17.40;86.70
4509;DHT22;2267;48.816;9.230;2023-02-22T12:59:59;17.40;85.80
4509;DHT22;2267;48.816;9.230;2023-02-22T13:02:33;17.40;85.10
4509;DHT22;2267;48.816;9.230;2023-02-22T13:05:02;17.40;85.00
4509;DHT22;2267;48.816;9.230;2023-02-22T13:12:47;17.50;84.00
4509;DHT22;2267;48.816;9.230;2023-02-22T13:15:27;17.50;83.60
4509;DHT22;2267;48.816;9.230;2023-02-22T13:21:10;17.60;83.80
4509;DHT22;2267;48.816;9.230;2023-02-22T13:26:22;17.70;83.60
4509;DHT22;2267;48.816;9.230;2023-02-22T13:28:58;17.70;83.10
4509;DHT22;2267;48.816;9.230;2023-02-22T13:38:04;18.10;81.30
4509;DHT22;2267;48.816;9.230;2023-02-22T13:56:47;18.40;78.70
4509;DHT22;2267;48.816;9.230;2023-02-22T13:59:30;18.40;78.50
4509;DHT22;2267;48.816;9.230;2023-02-22T14:02:03;18.40;78.10
4509;DHT22;2267;48.816;9.230;2023-02-22T14:06:58;18.40;77.10
4509;DHT22;2267;48.816;9.230;2023-02-22T14:09:50;18.30;77.40
4509;DHT22;2267;48.816;9.230;2023-02-22T14:17:58;17.80;78.00
4509;DHT22;2267;48.816;9.230;2023-02-22T14:23:26;17.60;79.30
4509;DHT22;2267;48.816;9.230;2023-02-22T14:25:55;17.40;80.10
4509;DHT22;2267;48.816;9.230;2023-02-22T14:31:16;17.20;81.30
4509;DHT22;2267;48.816;9.230;2023-02-22T14:34:07;17.20;81.80
4509;DHT22;2267;48.816;9.230;2023-02-22T14:36:50;17.10;82.40
4509;DHT22;2267;48.816;9.230;2023-02-22T14:39:36;17.00;82.80
4509;DHT22;2267;48.816;9.230;2023-02-22T14:48:43;16.70;84.60
4509;DHT22;2267;48.816;9.230;2023-02-22T14:56:04;16.50;85.80
4509;DHT22;2267;48.816;9.230;2023-02-22T14:58:40;16.50;86.20
4509;DHT22;2267;48.816;9.230;2023-02-22T15:01:25;16.40;86.40
4509;DHT22;2267;48.816;9.230;2023-02-22T15:04:28;16.40;87.00
4509;DHT22;2267;48.816;9.230;2023-02-22T15:06:58;16.30;87.40
4509;DHT22;2267;48.816;9.230;2023-02-22T15:09:29;16.20;88.10
4509;DHT22;2267;48.816;9.230;2023-02-22T15:14:33;16.10;89.10
4509;DHT22;2267;48.816;9.230;2023-02-22T15:17:17;16.10;89.50
4509;DHT22;2267;48.816;9.230;2023-02-22T15:19:46;16.10;89.80
4509;DHT22;2267;48.816;9.230;2023-02-22T15:22:23;16.00;90.00
4509;DHT22;2267;48.816;9.230;2023-02-22T15:25:00;16.00;90.20
4509;DHT22;2267;48.816;9.230;2023-02-22T15:27:28;16.00;90.30
4509;DHT22;2267;48.816;9.230;2023-02-22T15:29:58;16.00;90.40
4509;DHT22;2267;48.816;9.230;2023-02-22T15:38:00;15.80;90.70
4509;DHT22;2267;48.816;9.230;2023-02-22T15:40:28;15.80;90.80
4509;DHT22;2267;48.816;9.230;2023-02-22T15:43:01;15.70;90.90
4509;DHT22;2267;48.816;9.230;2023-02-22T15:45:29;15.70;91.00
4509;DHT22;2267;48.816;9.230;2023-02-22T15:47:57;15.70;91.10
4509;DHT22;2267;48.816;9.230;2023-02-22T15:50:32;15.60;91.10
4509;DHT22;2267;48.816;9.230;2023-02-22T15:53:06;15.60;91.20
4509;DHT22;2267;48.816;9.230;2023-02-22T15:58:19;15.50;91.40
4509;DHT22;2267;48.816;9.230;2023-02-22T16:01:02;15.50;91.50
4509;DHT22;2267;48.816;9.230;2023-02-22T16:03:36;15.40;91.60
4509;DHT22;2267;48.816;9.230;2023-02-22T16:06:22;15.40;91.60
4509;DHT22;2267;48.816;9.230;2023-02-22T16:08:51;15.40;91.70
4509;DHT22;2267;48.816;9.230;2023-02-22T16:11:25;15.30;91.70
4509;DHT22;2267;48.816;9.230;2023-02-22T16:14:00;15.30;91.80
4509;DHT22;2267;48.816;9.230;2023-02-22T16:16:30;15.30;91.90
4509;DHT22;2267;48.816;9.230;2023-02-22T16:21:57;15.30;92.00
4509;DHT22;2267;48.816;9.230;2023-02-22T16:24:33;15.30;92.20
4509;DHT22;2267;48.816;9.230;2023-02-22T16:29:41;15.20;92.30
4509;DHT22;2267;48.816;9.230;2023-02-22T16:32:08;15.20;92.30
4509;DHT22;2267;48.816;9.230;2023-02-22T16:34:35;15.20;92.50
4509;DHT22;2267;48.816;9.230;2023-02-22T16:37:02;15.20;92.70
4509;DHT22;2267;48.816;9.230;2023-02-22T16:39:30;15.10;92.90
4509;DHT22;2267;48.816;9.230;2023-02-22T16:42:00;15.10;93.20
4509;DHT22;2267;48.816;9.230;2023-02-22T16:44:27;15.00;93.30
4509;DHT22;2267;48.816;9.230;2023-02-22T16:46:58;15.00;93.40
4509;DHT22;2267;48.816;9.230;2023-02-22T16:49:25;15.00;93.50
4509;DHT22;2267;48.816;9.230;2023-02-22T16:52:05;15.00;93.60
4509;DHT22;2267;48.816;9.230;2023-02-22T16:54:35;14.90;93.60
4509;DHT22;2267;48.816;9.230;2023-02-22T16:57:05;14.90;93.60
4509;DHT22;2267;48.816;9.230;2023-02-22T16:59:36;14.80;93.70
4509;DHT22;2267;48.816;9.230;2023-02-22T17:02:04;14.80;93.80
4509;DHT22;2267;48.816;9.230;2023-02-22T17:04:33;14.80;93.90
4509;DHT22;2267;48.816;9.230;2023-02-22T17:07:00;14.70;94.00
4509;DHT22;2267;48.816;9.230;2023-02-22T17:09:30;14.70;94.10
4509;DHT22;2267;48.816;9.230;2023-02-22T17:11:58;14.60;94.10
4509;DHT22;2267;48.816;9.230;2023-02-22T17:14:30;14.60;94.10
4509;DHT22;2267;48.816;9.230;2023-02-22T17:16:57;14.60;94.10
4509;DHT22;2267;48.816;9.230;2023-02-22T17:19:26;14.50;94.20
4509;DHT22;2267;48.816;9.230;2023-02-22T17:21:52;14.50;94.20
4509;DHT22;2267;48.816;9.230;2023-02-22T17:24:22;13.90;93.90
4509;DHT22;2267;48.816;9.230;2023-02-22T17:26:50;14.40;94.30
4509;DHT22;2267;48.816;9.230;2023-02-22T17:29:22;14.40;94.50
4509;DHT22;2267;48.816;9.230;2023-02-22T17:31:51;14.40;94.50
4509;DHT22;2267;48.816;9.230;2023-02-22T17:34:18;14.40;94.60
4509;DHT22;2267;48.816;9.230;2023-02-22T17:36:45;14.30;94.60
4509;DHT22;2267;48.816;9.230;2023-02-22T17:39:12;14.30;94.70
4509;DHT22;2267;48.816;9.230;2023-02-22T17:41:39;14.30;94.70
4509;DHT22;2267;48.816;9.230;2023-02-22T17:44:06;14.20;94.70
4509;DHT22;2267;48.816;9.230;2023-02-22T17:46:35;14.20;94.70
4509;DHT22;2267;48.816;9.230;2023-02-22T17:49:02;14.20;94.80
4509;DHT22;2267;48.816;9.230;2023-02-22T17:51:29;14.20;94.80
4509;DHT22;2267;48.816;9.230;2023-02-22T17:53:55;14.10;94.80
4509;DHT22;2267;48.816;9.230;2023-02-22T17:56:22;14.10;94.80
4509;DHT22;2267;48.816;9.230;2023-02-22T17:58:52;14.10;94.90
4509;DHT22;2267;48.816;9.230;2023-02-22T18:01:26;14.00;94.90
4509;DHT22;2267;48.816;9.230;2023-02-22T18:03:56;14.00;94.90
4509;DHT22;2267;48.816;9.230;2023-02-22T18:06:25;14.00;94.70
4509;DHT22;2267;48.816;9.230;2023-02-22T18:08:55;14.00;94.70
4509;DHT22;2267;48.816;9.230;2023-02-22T18:11:24;14.00;94.70
4509;DHT22;2267;48.816;9.230;2023-02-22T18:13:57;13.90;94.50
4509;DHT22;2267;48.816;9.230;2023-02-22T18:16:25;13.90;94.40
4509;DHT22;2267;48.816;9.230;2023-02-22T18:18:55;13.90;94.30
4509;DHT22;2267;48.816;9.230;2023-02-22T18:21:22;13.90;94.30
4509;DHT22;2267;48.816;9.230;2023-02-22T18:23:49;13.90;94.30
4509;DHT22;2267;48.816;9.230;2023-02-22T18:26:18;13.80;94.30
4509;DHT22;2267;48.816;9.230;2023-02-22T18:28:46;13.80;94.30
4509;DHT22;2267;48.816;9.230;2023-02-22T18:31:17;13.80;94.40
4509;DHT22;2267;48.816;9.230;2023-02-22T18:33:47;13.70;94.40
4509;DHT22;2267;48.816;9.230;2023-02-22T18:36:15;13.70;94.40
4509;DHT22;2267;48.816;9.230;2023-02-22T18:38:43;13.70;94.60
4509;DHT22;2267;48.816;9.230;2023-02-22T18:41:15;13.60;94.60
4509;DHT22;2267;48.816;9.230;2023-02-22T18:43:43;13.60;94.60
4509;DHT22;2267;48.816;9.230;2023-02-22T18:46:20;13.60;94.60
4509;DHT22;2267;48.816;9.230;2023-02-22T18:48:50;13.60;94.60
4509;DHT22;2267;48.816;9.230;2023-02-22T18:51:17;13.60;94.60
4509;DHT22;2267;48.816;9.230;2023-02-22T18:53:44;13.50;94.50
4509;DHT22;2267;48.816;9.230;2023-02-22T18:56:16;13.50;94.60
4509;DHT22;2267;48.816;9.230;2023-02-22T18:58:51;13.50;94.60
4509;DHT22;2267;48.816;9.230;2023-02-22T19:01:18;13.40;94.60
4509;DHT22;2267;48.816;9.230;2023-02-22T19:03:46;13.40;94.70
4509;DHT22;2267;48.816;9.230;2023-02-22T19:06:14;13.40;94.70
4509;DHT22;2267;48.816;9.230;2023-02-22T19:08:43;13.40;94.80
4509;DHT22;2267;48.816;9.230;2023-02-22T19:11:19;13.40;94.70
4509;DHT22;2267;48.816;9.230;2023-02-22T19:13:50;13.40;94.70
4509;DHT22;2267;48.816;9.230;2023-02-22T19:16:18;13.40;94.80